sensor_id;sensor_type;location;lat;lon;timestamp;pressure;altitude;pressure_sealevel;temperature;humidity
15670;BME280;18524;45.190;5.732;2022-08-19T00:02:51;98821.78;;;22.05;88.75
15670;BME280;18524;45.190;5.732;2022-08-19T00:07:42;98821.97;;;21.97;88.56
15670;BME280;18524;45.190;5.732;2022-08-19T00:12:33;98815.56;;;21.92;88.67
15670;BME280;18524;45.190;5.732;2022-08-19T00:17:24;98816.44;;;22.05;87.92
15670;BME280;18524;45.190;5.732;2022-08-19T00:22:14;98819.69;;;21.94;88.77
15670;BME280;18524;45.190;5.732;2022-08-19T00:27:07;98828.91;;;21.72;89.58
15670;BME280;18524;45.190;5.732;2022-08-19T00:31:58;98834.25;;;21.72;89.87
15670;BME280;18524;45.190;5.732;2022-08-19T00:36:49;98830.13;;;21.82;87.86
15670;BME280;18524;45.190;5.732;2022-08-19T00:41:41;98829.31;;;21.75;89.15
15670;BME280;18524;45.190;5.732;2022-08-19T00:46:33;98839.38;;;21.80;87.48
15670;BME280;18524;45.190;5.732;2022-08-19T00:51:27;98836.44;;;21.48;91.05
15670;BME280;18524;45.190;5.732;2022-08-19T00:56:20;98839.53;;;21.11;95.00
15670;BME280;18524;45.190;5.732;2022-08-19T01:01:10;98831.09;;;21.01;96.80
15670;BME280;18524;45.190;5.732;2022-08-19T01:06:00;98823.63;;;20.83;97.50
15670;BME280;18524;45.190;5.732;2022-08-19T01:10:56;98823.75;;;20.75;97.88
15670;BME280;18524;45.190;5.732;2022-08-19T01:15:52;98819.22;;;20.69;100.00
15670;BME280;18524;45.190;5.732;2022-08-19T01:20:45;98814.84;;;20.89;98.41
15670;BME280;18524;45.190;5.732;2022-08-19T01:25:50;98807.53;;;20.70;99.25
15670;BME280;18524;45.190;5.732;2022-08-19T01:30:40;98801.94;;;20.92;96.93
15670;BME280;18524;45.190;5.732;2022-08-19T01:35:31;98796.47;;;21.14;95.75
15670;BME280;18524;45.190;5.732;2022-08-19T01:40:25;98809.31;;;20.90;99.00
15670;BME280;18524;45.190;5.732;2022-08-19T01:45:18;98798.25;;;20.94;98.61
15670;BME280;18524;45.190;5.732;2022-08-19T01:50:10;98800.06;;;20.86;100.00
15670;BME280;18524;45.190;5.732;2022-08-19T01:55:00;98812.53;;;21.20;96.37
15670;BME280;18524;45.190;5.732;2022-08-19T01:59:51;98800.94;;;21.54;91.76
15670;BME280;18524;45.190;5.732;2022-08-19T02:04:41;98803.44;;;21.76;90.49
15670;BME280;18524;45.190;5.732;2022-08-19T02:09:32;98806.91;;;21.63;89.27
15670;BME280;18524;45.190;5.732;2022-08-19T02:14:22;98810.97;;;21.46;94.28
15670;BME280;18524;45.190;5.732;2022-08-19T02:19:13;98813.78;;;21.25;96.36
15670;BME280;18524;45.190;5.732;2022-08-19T02:24:03;98808.25;;;21.26;93.40
15670;BME280;18524;45.190;5.732;2022-08-19T02:28:54;98806.97;;;20.81;97.87
15670;BME280;18524;45.190;5.732;2022-08-19T02:33:46;98818.00;;;20.71;99.40
15670;BME280;18524;45.190;5.732;2022-08-19T02:38:37;98823.75;;;20.75;97.80
15670;BME280;18524;45.190;5.732;2022-08-19T02:43:29;98835.66;;;21.13;94.02
15670;BME280;18524;45.190;5.732;2022-08-19T02:48:21;98833.84;;;21.20;96.04
15670;BME280;18524;45.190;5.732;2022-08-19T02:53:11;98822.66;;;21.45;91.78
15670;BME280;18524;45.190;5.732;2022-08-19T02:58:02;98832.72;;;21.49;93.29
15670;BME280;18524;45.190;5.732;2022-08-19T03:02:53;98832.94;;;21.54;92.01
15670;BME280;18524;45.190;5.732;2022-08-19T03:07:43;98836.09;;;21.71;91.11
15670;BME280;18524;45.190;5.732;2022-08-19T03:12:38;98839.28;;;21.40;96.23
15670;BME280;18524;45.190;5.732;2022-08-19T03:17:28;98837.63;;;21.39;93.99
15670;BME280;18524;45.190;5.732;2022-08-19T03:22:19;98832.91;;;21.41;94.03
15670;BME280;18524;45.190;5.732;2022-08-19T03:27:09;98847.69;;;21.37;94.97
15670;BME280;18524;45.190;5.732;2022-08-19T03:32:01;98846.25;;;21.41;94.05
15670;BME280;18524;45.190;5.732;2022-08-19T03:36:54;98850.44;;;21.16;96.92
15670;BME280;18524;45.190;5.732;2022-08-19T03:41:47;98858.31;;;21.24;97.71
15670;BME280;18524;45.190;5.732;2022-08-19T03:46:39;98877.03;;;21.03;98.78
15670;BME280;18524;45.190;5.732;2022-08-19T03:51:32;98875.81;;;21.05;96.18
15670;BME280;18524;45.190;5.732;2022-08-19T03:56:25;98874.78;;;21.00;98.61
15670;BME280;18524;45.190;5.732;2022-08-19T04:01:21;98882.09;;;20.56;100.00
15670;BME280;18524;45.190;5.732;2022-08-19T04:11:12;98897.81;;;20.79;98.90
15670;BME280;18524;45.190;5.732;2022-08-19T04:16:04;98902.13;;;20.80;100.00
15670;BME280;18524;45.190;5.732;2022-08-19T04:20:55;98915.78;;;21.27;94.91
15670;BME280;18524;45.190;5.732;2022-08-19T04:25:46;98916.47;;;21.48;93.52
15670;BME280;18524;45.190;5.732;2022-08-19T04:30:39;98918.81;;;21.65;91.44
15670;BME280;18524;45.190;5.732;2022-08-19T04:35:41;98924.03;;;21.38;91.94
15670;BME280;18524;45.190;5.732;2022-08-19T04:40:32;98920.34;;;21.39;93.07
15670;BME280;18524;45.190;5.732;2022-08-19T04:45:45;98929.50;;;21.24;95.92
15670;BME280;18524;45.190;5.732;2022-08-19T04:50:36;98935.13;;;21.42;91.98
15670;BME280;18524;45.190;5.732;2022-08-19T04:55:26;98937.53;;;21.78;89.03
15670;BME280;18524;45.190;5.732;2022-08-19T05:00:17;98940.00;;;21.73;89.51
15670;BME280;18524;45.190;5.732;2022-08-19T05:05:07;98946.81;;;21.89;87.47
15670;BME280;18524;45.190;5.732;2022-08-19T05:09:58;98962.75;;;22.17;85.37
15670;BME280;18524;45.190;5.732;2022-08-19T05:14:48;98958.38;;;22.02;86.76
15670;BME280;18524;45.190;5.732;2022-08-19T05:19:39;98971.97;;;21.60;92.06
15670;BME280;18524;45.190;5.732;2022-08-19T05:24:48;98979.56;;;21.56;90.73
15670;BME280;18524;45.190;5.732;2022-08-19T05:29:39;98983.69;;;21.59;92.53
15670;BME280;18524;45.190;5.732;2022-08-19T05:34:29;98998.53;;;21.40;95.15
15670;BME280;18524;45.190;5.732;2022-08-19T05:39:20;98983.94;;;21.36;93.16
15670;BME280;18524;45.190;5.732;2022-08-19T05:44:10;98977.63;;;21.43;95.64
15670;BME280;18524;45.190;5.732;2022-08-19T05:49:01;98981.00;;;21.59;91.46
15670;BME280;18524;45.190;5.732;2022-08-19T05:53:52;98995.03;;;21.74;89.41
15670;BME280;18524;45.190;5.732;2022-08-19T05:58:44;98998.75;;;21.79;89.55
15670;BME280;18524;45.190;5.732;2022-08-19T06:03:35;98994.81;;;21.75;91.82
15670;BME280;18524;45.190;5.732;2022-08-19T06:08:27;99007.66;;;21.93;88.90
15670;BME280;18524;45.190;5.732;2022-08-19T06:13:18;99007.53;;;21.67;93.57
15670;BME280;18524;45.190;5.732;2022-08-19T06:18:09;99014.97;;;21.43;97.19
15670;BME280;18524;45.190;5.732;2022-08-19T06:22:59;99027.28;;;21.79;91.22
15670;BME280;18524;45.190;5.732;2022-08-19T06:27:50;99038.06;;;21.58;96.47
15670;BME280;18524;45.190;5.732;2022-08-19T06:32:40;99050.72;;;21.21;100.00
15670;BME280;18524;45.190;5.732;2022-08-19T06:37:31;99052.09;;;21.17;100.00
15670;BME280;18524;45.190;5.732;2022-08-19T06:42:21;99055.75;;;21.31;99.44
15670;BME280;18524;45.190;5.732;2022-08-19T06:47:14;99057.16;;;21.27;100.00
15670;BME280;18524;45.190;5.732;2022-08-19T06:52:06;99060.03;;;21.25;100.00
15670;BME280;18524;45.190;5.732;2022-08-19T06:56:58;99062.50;;;21.05;100.00
15670;BME280;18524;45.190;5.732;2022-08-19T07:01:52;99060.78;;;21.19;100.00
15670;BME280;18524;45.190;5.732;2022-08-19T07:06:43;99064.44;;;21.18;100.00
15670;BME280;18524;45.190;5.732;2022-08-19T07:11:34;99069.88;;;21.25;100.00
15670;BME280;18524;45.190;5.732;2022-08-19T07:16:25;99085.13;;;21.65;94.98
15670;BME280;18524;45.190;5.732;2022-08-19T07:21:22;99092.84;;;21.53;99.84
15670;BME280;18524;45.190;5.732;2022-08-19T07:31:15;99101.25;;;21.50;100.00
15670;BME280;18524;45.190;5.732;2022-08-19T07:36:08;99093.56;;;21.69;96.04
15670;BME280;18524;45.190;5.732;2022-08-19T07:41:01;99096.78;;;21.58;99.59
15670;BME280;18524;45.190;5.732;2022-08-19T07:45:55;99098.28;;;21.67;98.04
15670;BME280;18524;45.190;5.732;2022-08-19T07:50:48;99105.16;;;21.54;99.77
15670;BME280;18524;45.190;5.732;2022-08-19T07:55:38;99119.56;;;21.88;96.56
15670;BME280;18524;45.190;5.732;2022-08-19T08:00:29;99109.03;;;21.80;98.31
15670;BME280;18524;45.190;5.732;2022-08-19T08:05:19;99116.22;;;22.07;96.03
15670;BME280;18524;45.190;5.732;2022-08-19T08:10:28;99103.66;;;22.56;91.02
15670;BME280;18524;45.190;5.732;2022-08-19T08:15:18;99102.19;;;22.53;92.26
15670;BME280;18524;45.190;5.732;2022-08-19T08:20:11;99102.28;;;22.80;91.08
15670;BME280;18524;45.190;5.732;2022-08-19T08:25:22;99112.53;;;22.69;91.51
15670;BME280;18524;45.190;5.732;2022-08-19T08:30:23;99115.69;;;22.93;91.12
15670;BME280;18524;45.190;5.732;2022-08-19T08:35:18;99122.09;;;23.12;91.56
15670;BME280;18524;45.190;5.732;2022-08-19T08:40:26;99118.00;;;23.62;88.00
15670;BME280;18524;45.190;5.732;2022-08-19T08:45:18;99122.19;;;24.22;84.03
15670;BME280;18524;45.190;5.732;2022-08-19T08:50:14;99134.34;;;24.12;82.76
15670;BME280;18524;45.190;5.732;2022-08-19T08:55:10;99127.44;;;23.78;85.19
15670;BME280;18524;45.190;5.732;2022-08-19T09:00:05;99138.13;;;23.97;83.59
15670;BME280;18524;45.190;5.732;2022-08-19T09:04:56;99128.06;;;23.80;81.63
15670;BME280;18524;45.190;5.732;2022-08-19T09:09:50;99134.88;;;23.69;79.89
15670;BME280;18524;45.190;5.732;2022-08-19T09:15:02;99144.94;;;23.93;81.31
15670;BME280;18524;45.190;5.732;2022-08-19T09:25:07;99152.56;;;23.96;80.06
15670;BME280;18524;45.190;5.732;2022-08-19T09:29:58;99156.00;;;24.10;77.31
15670;BME280;18524;45.190;5.732;2022-08-19T09:34:49;99152.94;;;24.07;77.95
15670;BME280;18524;45.190;5.732;2022-08-19T09:39:40;99157.03;;;24.29;76.38
15670;BME280;18524;45.190;5.732;2022-08-19T09:44:31;99157.44;;;24.13;73.23
15670;BME280;18524;45.190;5.732;2022-08-19T09:49:23;99165.28;;;24.08;76.74
15670;BME280;18524;45.190;5.732;2022-08-19T09:54:14;99173.09;;;24.16;75.85
15670;BME280;18524;45.190;5.732;2022-08-19T09:59:04;99180.50;;;24.34;75.35
15670;BME280;18524;45.190;5.732;2022-08-19T10:03:56;99173.06;;;24.42;74.43
15670;BME280;18524;45.190;5.732;2022-08-19T10:08:48;99169.91;;;24.58;73.20
15670;BME280;18524;45.190;5.732;2022-08-19T10:13:38;99176.50;;;24.62;72.68
15670;BME280;18524;45.190;5.732;2022-08-19T10:18:29;99164.69;;;24.70;73.14
15670;BME280;18524;45.190;5.732;2022-08-19T10:23:20;99168.66;;;25.06;71.35
15670;BME280;18524;45.190;5.732;2022-08-19T10:28:11;99169.91;;;25.03;71.55
15670;BME280;18524;45.190;5.732;2022-08-19T10:33:02;99170.63;;;25.17;72.26
15670;BME280;18524;45.190;5.732;2022-08-19T10:37:52;99174.28;;;25.29;71.90
15670;BME280;18524;45.190;5.732;2022-08-19T10:42:42;99174.09;;;25.80;68.75
15670;BME280;18524;45.190;5.732;2022-08-19T10:47:34;99182.03;;;26.12;67.90
15670;BME280;18524;45.190;5.732;2022-08-19T10:52:25;99183.22;;;26.16;66.96
15670;BME280;18524;45.190;5.732;2022-08-19T10:57:24;99177.06;;;25.91;67.72
15670;BME280;18524;45.190;5.732;2022-08-19T11:02:19;99192.78;;;25.69;68.00
15670;BME280;18524;45.190;5.732;2022-08-19T11:07:09;99181.44;;;25.60;69.10
15670;BME280;18524;45.190;5.732;2022-08-19T11:12:02;99189.63;;;25.47;68.08
15670;BME280;18524;45.190;5.732;2022-08-19T11:16:52;99198.78;;;25.64;67.70
15670;BME280;18524;45.190;5.732;2022-08-19T11:21:47;99204.81;;;25.66;67.74
15670;BME280;18524;45.190;5.732;2022-08-19T11:26:40;99201.34;;;25.52;67.69
15670;BME280;18524;45.190;5.732;2022-08-19T11:31:32;99194.38;;;25.76;68.35
15670;BME280;18524;45.190;5.732;2022-08-19T11:36:23;99198.31;;;26.17;66.96
15670;BME280;18524;45.190;5.732;2022-08-19T11:41:14;99201.63;;;26.37;65.48
15670;BME280;18524;45.190;5.732;2022-08-19T11:46:07;99202.59;;;27.09;62.50
15670;BME280;18524;45.190;5.732;2022-08-19T11:50:58;99197.88;;;27.23;61.62
15670;BME280;18524;45.190;5.732;2022-08-19T11:55:53;99198.59;;;27.30;60.99
15670;BME280;18524;45.190;5.732;2022-08-19T12:00:46;99198.50;;;27.07;61.48
15670;BME280;18524;45.190;5.732;2022-08-19T12:05:38;99201.59;;;26.74;62.39
15670;BME280;18524;45.190;5.732;2022-08-19T12:10:29;99197.56;;;27.01;62.97
15670;BME280;18524;45.190;5.732;2022-08-19T12:15:19;99201.25;;;27.72;59.27
15670;BME280;18524;45.190;5.732;2022-08-19T12:20:11;99186.97;;;27.71;58.87
15670;BME280;18524;45.190;5.732;2022-08-19T12:25:04;99196.34;;;28.39;58.21
15670;BME280;18524;45.190;5.732;2022-08-19T12:29:55;99212.66;;;28.32;56.15
15670;BME280;18524;45.190;5.732;2022-08-19T12:34:45;99198.22;;;28.03;57.23
15670;BME280;18524;45.190;5.732;2022-08-19T12:39:40;99201.03;;;27.85;58.04
15670;BME280;18524;45.190;5.732;2022-08-19T12:44:31;99204.69;;;27.37;60.00
15670;BME280;18524;45.190;5.732;2022-08-19T12:49:22;99210.19;;;27.01;61.65
15670;BME280;18524;45.190;5.732;2022-08-19T12:54:12;99198.41;;;26.65;62.53
15670;BME280;18524;45.190;5.732;2022-08-19T12:59:04;99202.94;;;26.28;63.49
15670;BME280;18524;45.190;5.732;2022-08-19T13:03:54;99213.84;;;26.15;65.06
15670;BME280;18524;45.190;5.732;2022-08-19T13:08:45;99214.38;;;25.80;71.34
15670;BME280;18524;45.190;5.732;2022-08-19T13:13:35;99218.78;;;25.43;72.93
15670;BME280;18524;45.190;5.732;2022-08-19T13:18:25;99227.75;;;25.31;72.72
15670;BME280;18524;45.190;5.732;2022-08-19T13:23:16;99235.75;;;25.06;74.05
15670;BME280;18524;45.190;5.732;2022-08-19T13:28:06;99232.28;;;24.92;74.34
15670;BME280;18524;45.190;5.732;2022-08-19T13:32:58;99236.13;;;24.65;75.54
15670;BME280;18524;45.190;5.732;2022-08-19T13:38:00;99225.03;;;24.41;75.52
15670;BME280;18524;45.190;5.732;2022-08-19T13:42:55;99217.63;;;24.37;76.94
15670;BME280;18524;45.190;5.732;2022-08-19T13:47:50;99224.03;;;24.29;76.55
15670;BME280;18524;45.190;5.732;2022-08-19T13:52:41;99212.88;;;24.39;76.35
15670;BME280;18524;45.190;5.732;2022-08-19T13:57:32;99203.00;;;24.26;75.23
15670;BME280;18524;45.190;5.732;2022-08-19T14:02:23;99222.59;;;24.20;77.58
15670;BME280;18524;45.190;5.732;2022-08-19T14:07:14;99202.19;;;24.12;77.80
15670;BME280;18524;45.190;5.732;2022-08-19T14:12:04;99219.91;;;24.13;77.42
15670;BME280;18524;45.190;5.732;2022-08-19T14:16:54;99220.34;;;24.30;76.23
15670;BME280;18524;45.190;5.732;2022-08-19T14:21:45;99220.34;;;24.30;75.85
15670;BME280;18524;45.190;5.732;2022-08-19T14:26:35;99215.09;;;24.48;74.81
15670;BME280;18524;45.190;5.732;2022-08-19T14:31:26;99214.69;;;24.51;74.54
15670;BME280;18524;45.190;5.732;2022-08-19T14:36:17;99211.78;;;24.59;72.83
15670;BME280;18524;45.190;5.732;2022-08-19T14:41:22;99209.66;;;24.75;73.12
15670;BME280;18524;45.190;5.732;2022-08-19T14:46:14;99205.69;;;24.84;72.02
15670;BME280;18524;45.190;5.732;2022-08-19T14:51:05;99204.38;;;24.55;73.41
15670;BME280;18524;45.190;5.732;2022-08-19T14:55:56;99205.34;;;24.67;73.04
15670;BME280;18524;45.190;5.732;2022-08-19T15:00:46;99195.50;;;24.54;73.80
15670;BME280;18524;45.190;5.732;2022-08-19T15:05:37;99202.72;;;24.60;73.46
15670;BME280;18524;45.190;5.732;2022-08-19T15:10:28;99202.50;;;24.62;72.92
15670;BME280;18524;45.190;5.732;2022-08-19T15:15:18;99213.03;;;24.57;72.98
15670;BME280;18524;45.190;5.732;2022-08-19T15:20:15;99217.72;;;24.68;72.89
15670;BME280;18524;45.190;5.732;2022-08-19T15:25:07;99220.16;;;24.76;72.59
15670;BME280;18524;45.190;5.732;2022-08-19T15:29:59;99218.72;;;24.74;73.01
15670;BME280;18524;45.190;5.732;2022-08-19T15:34:49;99218.94;;;24.72;72.70
15670;BME280;18524;45.190;5.732;2022-08-19T15:39:39;99231.16;;;24.61;73.54
15670;BME280;18524;45.190;5.732;2022-08-19T15:44:30;99238.19;;;24.62;72.59
15670;BME280;18524;45.190;5.732;2022-08-19T15:49:20;99244.59;;;24.61;73.04
15670;BME280;18524;45.190;5.732;2022-08-19T15:54:14;99246.41;;;24.68;72.24
15670;BME280;18524;45.190;5.732;2022-08-19T15:59:05;99244.28;;;24.83;71.90
15670;BME280;18524;45.190;5.732;2022-08-19T16:04:14;99239.16;;;24.75;71.70
15670;BME280;18524;45.190;5.732;2022-08-19T16:09:26;99234.81;;;24.74;71.71
15670;BME280;18524;45.190;5.732;2022-08-19T16:14:18;99228.94;;;25.03;71.63
15670;BME280;18524;45.190;5.732;2022-08-19T16:19:09;99222.19;;;25.32;69.17
15670;BME280;18524;45.190;5.732;2022-08-19T16:24:04;99219.00;;;25.42;68.99
15670;BME280;18524;45.190;5.732;2022-08-19T16:28:58;99219.09;;;25.29;67.86
15670;BME280;18524;45.190;5.732;2022-08-19T16:33:49;99224.31;;;25.17;67.01
15670;BME280;18524;45.190;5.732;2022-08-19T16:38:40;99218.94;;;25.17;68.81
15670;BME280;18524;45.190;5.732;2022-08-19T16:43:30;99221.84;;;25.15;68.89
15670;BME280;18524;45.190;5.732;2022-08-19T16:48:23;99221.34;;;25.00;69.10
15670;BME280;18524;45.190;5.732;2022-08-19T16:53:17;99224.63;;;25.02;69.41
15670;BME280;18524;45.190;5.732;2022-08-19T16:58:08;99221.34;;;25.00;69.09
15670;BME280;18524;45.190;5.732;2022-08-19T17:03:06;99217.59;;;25.01;69.17
15670;BME280;18524;45.190;5.732;2022-08-19T17:07:58;99205.78;;;25.09;69.21
15670;BME280;18524;45.190;5.732;2022-08-19T17:12:49;99208.00;;;25.18;68.85
15670;BME280;18524;45.190;5.732;2022-08-19T17:17:40;99207.00;;;25.13;70.38
15670;BME280;18524;45.190;5.732;2022-08-19T17:22:30;99211.53;;;25.12;69.81
15670;BME280;18524;45.190;5.732;2022-08-19T17:27:21;99204.09;;;25.14;68.87
15670;BME280;18524;45.190;5.732;2022-08-19T17:32:11;99202.47;;;25.13;68.40
15670;BME280;18524;45.190;5.732;2022-08-19T17:37:02;99205.19;;;25.07;69.03
15670;BME280;18524;45.190;5.732;2022-08-19T17:41:52;99200.06;;;24.99;70.00
15670;BME280;18524;45.190;5.732;2022-08-19T17:46:43;99204.63;;;24.98;69.97
15670;BME280;18524;45.190;5.732;2022-08-19T17:56:29;99201.94;;;24.91;71.07
15670;BME280;18524;45.190;5.732;2022-08-19T18:01:19;99206.28;;;24.92;70.92
15670;BME280;18524;45.190;5.732;2022-08-19T18:06:13;99212.88;;;24.90;71.07
15670;BME280;18524;45.190;5.732;2022-08-19T18:11:06;99214.38;;;24.79;71.37
15670;BME280;18524;45.190;5.732;2022-08-19T18:15:56;99221.25;;;24.62;72.40
15670;BME280;18524;45.190;5.732;2022-08-19T18:20:47;99228.31;;;24.56;72.34
15670;BME280;18524;45.190;5.732;2022-08-19T18:25:38;99231.41;;;24.47;73.39
15670;BME280;18524;45.190;5.732;2022-08-19T18:30:29;99232.47;;;24.26;75.31
15670;BME280;18524;45.190;5.732;2022-08-19T18:35:26;99237.63;;;24.14;75.61
15670;BME280;18524;45.190;5.732;2022-08-19T18:40:20;99242.38;;;24.06;75.05
15670;BME280;18524;45.190;5.732;2022-08-19T18:45:30;99249.81;;;24.04;75.53
15670;BME280;18524;45.190;5.732;2022-08-19T18:50:39;99257.25;;;23.95;76.45
15670;BME280;18524;45.190;5.732;2022-08-19T18:55:32;99253.75;;;23.94;76.65
15670;BME280;18524;45.190;5.732;2022-08-19T19:00:23;99253.75;;;23.88;77.99
15670;BME280;18524;45.190;5.732;2022-08-19T19:05:14;99263.22;;;23.84;76.64
15670;BME280;18524;45.190;5.732;2022-08-19T19:10:06;99270.44;;;23.83;75.84
15670;BME280;18524;45.190;5.732;2022-08-19T19:14:57;99272.47;;;23.75;75.83
15670;BME280;18524;45.190;5.732;2022-08-19T19:19:47;99284.84;;;23.62;76.51
15670;BME280;18524;45.190;5.732;2022-08-19T19:24:39;99279.47;;;23.56;78.55
15670;BME280;18524;45.190;5.732;2022-08-19T19:29:29;99286.28;;;23.65;77.04
15670;BME280;18524;45.190;5.732;2022-08-19T19:34:21;99290.81;;;23.64;76.96
15670;BME280;18524;45.190;5.732;2022-08-19T19:39:12;99288.34;;;23.56;76.98
15670;BME280;18524;45.190;5.732;2022-08-19T19:44:03;99290.00;;;23.57;76.88
15670;BME280;18524;45.190;5.732;2022-08-19T19:48:54;99300.38;;;23.32;77.98
15670;BME280;18524;45.190;5.732;2022-08-19T19:53:45;99294.72;;;23.62;78.10
15670;BME280;18524;45.190;5.732;2022-08-19T19:58:35;99303.75;;;23.48;79.43
15670;BME280;18524;45.190;5.732;2022-08-19T20:03:26;99310.25;;;23.25;80.74
15670;BME280;18524;45.190;5.732;2022-08-19T20:08:17;99322.22;;;23.29;80.09
15670;BME280;18524;45.190;5.732;2022-08-19T20:13:26;99323.03;;;23.23;79.65
15670;BME280;18524;45.190;5.732;2022-08-19T20:18:17;99329.41;;;23.22;78.73
15670;BME280;18524;45.190;5.732;2022-08-19T20:23:07;99331.78;;;23.04;79.88
15670;BME280;18524;45.190;5.732;2022-08-19T20:27:58;99339.38;;;23.00;79.57
15670;BME280;18524;45.190;5.732;2022-08-19T20:32:50;99336.84;;;22.86;81.01
15670;BME280;18524;45.190;5.732;2022-08-19T20:37:40;99339.38;;;23.00;80.69
15670;BME280;18524;45.190;5.732;2022-08-19T20:52:13;99347.44;;;22.72;80.80
15670;BME280;18524;45.190;5.732;2022-08-19T20:57:04;99347.84;;;22.69;81.83
15670;BME280;18524;45.190;5.732;2022-08-19T21:01:54;99348.59;;;22.63;82.38
15670;BME280;18524;45.190;5.732;2022-08-19T21:06:45;99349.59;;;22.84;80.39
15670;BME280;18524;45.190;5.732;2022-08-19T21:11:36;99347.47;;;22.79;80.48
15670;BME280;18524;45.190;5.732;2022-08-19T21:16:27;99346.84;;;22.77;81.72
15670;BME280;18524;45.190;5.732;2022-08-19T21:21:17;99349.09;;;22.73;81.64
15670;BME280;18524;45.190;5.732;2022-08-19T21:26:07;99350.84;;;22.60;81.74
15670;BME280;18524;45.190;5.732;2022-08-19T21:30:58;99355.09;;;22.48;81.99
15670;BME280;18524;45.190;5.732;2022-08-19T21:35:49;99350.47;;;22.35;82.39
15670;BME280;18524;45.190;5.732;2022-08-19T21:40:40;99352.88;;;22.30;85.20
15670;BME280;18524;45.190;5.732;2022-08-19T21:45:31;99357.88;;;22.11;85.29
15670;BME280;18524;45.190;5.732;2022-08-19T21:50:22;99353.03;;;22.00;86.60
15670;BME280;18524;45.190;5.732;2022-08-19T21:55:13;99362.84;;;22.14;85.57
15670;BME280;18524;45.190;5.732;2022-08-19T22:00:08;99355.19;;;21.90;86.27
15670;BME280;18524;45.190;5.732;2022-08-19T22:05:02;99353.53;;;21.89;86.50
15670;BME280;18524;45.190;5.732;2022-08-19T22:09:52;99343.34;;;22.21;85.14
15670;BME280;18524;45.190;5.732;2022-08-19T22:14:43;99339.69;;;22.00;86.76
15670;BME280;18524;45.190;5.732;2022-08-19T22:19:33;99337.69;;;22.30;84.26
15670;BME280;18524;45.190;5.732;2022-08-19T22:24:24;99340.25;;;22.17;84.73
15670;BME280;18524;45.190;5.732;2022-08-19T22:29:14;99347.38;;;22.10;85.61
15670;BME280;18524;45.190;5.732;2022-08-19T22:34:05;99341.84;;;22.33;83.88
15670;BME280;18524;45.190;5.732;2022-08-19T22:38:56;99337.19;;;22.20;84.81
15670;BME280;18524;45.190;5.732;2022-08-19T22:43:47;99351.06;;;21.88;86.57
15670;BME280;18524;45.190;5.732;2022-08-19T22:48:37;99352.34;;;21.70;88.07
15670;BME280;18524;45.190;5.732;2022-08-19T22:53:28;99352.41;;;21.98;85.48
15670;BME280;18524;45.190;5.732;2022-08-19T22:58:18;99362.84;;;22.14;84.42
15670;BME280;18524;45.190;5.732;2022-08-19T23:03:08;99358.75;;;21.97;86.25
15670;BME280;18524;45.190;5.732;2022-08-19T23:07:59;99361.97;;;21.93;85.67
15670;BME280;18524;45.190;5.732;2022-08-19T23:12:49;99359.78;;;21.96;86.31
15670;BME280;18524;45.190;5.732;2022-08-19T23:17:40;99363.84;;;22.13;84.62
15670;BME280;18524;45.190;5.732;2022-08-19T23:22:30;99372.13;;;22.19;84.24
15670;BME280;18524;45.190;5.732;2022-08-19T23:27:21;99365.88;;;22.33;82.01
15670;BME280;18524;45.190;5.732;2022-08-19T23:32:34;99367.66;;;22.26;82.99
15670;BME280;18524;45.190;5.732;2022-08-19T23:37:24;99359.63;;;22.26;82.65
15670;BME280;18524;45.190;5.732;2022-08-19T23:42:15;99364.50;;;21.94;84.29
15670;BME280;18524;45.190;5.732;2022-08-19T23:47:06;99362.84;;;21.93;83.92
15670;BME280;18524;45.190;5.732;2022-08-19T23:51:56;99363.50;;;21.80;84.77
15670;BME280;18524;45.190;5.732;2022-08-19T23:56:47;99352.44;;;21.83;84.32
